Kincheloe, MI (49788)

1:04 PM EDT on August 29, 2015 (GMT -0400)
MesoWest | | Change Station
CLOSE
Current Station
Personal Weather Station
Location: Dafter, MI
Elevation: 686 ft
Nearby Weather Stations

Elev 686 ft 46.37 °N, 84.43 °W | Updated 44 minutes ago

Overcast
Overcast
67 °F
Feels Like 67 °F
N
8
Wind Variable Wind from WSW
Gusts 17.0 mph

Today
High -- | Low -- °F
--% Chance of Precip.
Yesterday
High -- | Low -- °F
Precip. -- in
6:54 AM 8:22 PM
Full, 100% visible
Pressure 30.08 in
Visibility 10.0 miles
Clouds Mostly Cloudy 1600 ft
Overcast 2500 ft
Dew Point 61 °F
Humidity 82%
Rainfall in
Snow Depth Not available.
UV 2 out of 12
Pollen 8.70 out of 12
Air Quality Not available.
Flu Activity Not available.
METAR KCIU 291655Z AUTO 26010G14KT 10SM BKN016 OVC025 19/16 A3008 RMK AO1
Pressure 30.08 in
Visibility 10.0 miles
Clouds Mostly Cloudy 1600 ft
Overcast 2500 ft
Dew Point 61 °F
Humidity 82%
Rainfall in
Snow Depth Not available.
UV 2 out of 12
Pollen 8.70 out of 12
Air Quality Not available.
Flu Activity Not available.
METAR KCIU 291655Z AUTO 26010G14KT 10SM BKN016 OVC025 19/16 A3008 RMK AO1
Nowcast | as of 1:00 PM EDT on August 29, 2015

At 2 PM...mostly cloudy. Scattered showers. Temperature 69. Southwest winds 6 mph. At 4 PM...mostly cloudy. Scattered showers. Temperature 70. West winds 7 mph. At 6 PM...partly cloudy. Scattered showers. Temperature 69. Southwest winds 6 mph. At 8 PM...partly cloudy. Temperature 66. Southwest winds 5 mph.

×

10-Day Weather Forecast

×

Almanac

Astronomy

Aug. 29, 2015 Rise Set
Actual Time
Civil Twilight
Nautical Twilight
Astronomical Twilight
Moon
Length of Visible Light
Length of Day
Tomorrow will be .
, % of the Moon is Illuminated

Today's Extremes

State Highs State Lows

Community

WunderPhotos

Upload Photos

1,850,724 photos uploaded!

WunderBlogs® & News

Nearby

Air Quality

  Air Quality AQ Index Pollutant
Not available.

Snow Depth

Station Depth Elevation

Earthquake Activity

City Distance Mag. Time & Date
Minimum magnitude displayed is 2.5.

Coastal Water Temperatures

Place Temperature

Stations

Nearby Weather Stations

Station Location Temp. Windchill Dew Point Humidity Wind Precip. Elev Updated Type